Time;durP1;ratioP1;P1;durP2;ratioP2;P2;SDS_P1;SDS_P2;PMS_P1;PMS_P2;Temp;Humidity;BMP_temperature;BMP_pressure;BME280_temperature;BME280_humidity;BME280_pressure;Samples;Min_cycle;Max_cycle;Signal;HPM_P1;HPM_P2
2023/06/19 00:00:32;;;;;;;11.95;9.38;;;;;;;;;;5062388;28;20112;-77
2023/06/19 00:02:58;;;;;;;11.88;9.35;;;;;;;;;;5060654;28;20028;-76
2023/06/19 00:05:24;;;;;;;11.13;8.98;;;;;;;;;;5070241;28;20124;-77
2023/06/19 00:07:51;;;;;;;9.82;8.77;;;;;;;;;;5064071;28;20025;-77
2023/06/19 00:10:17;;;;;;;9.48;8.32;;;;;;;;;;5068914;28;20033;-77
2023/06/19 00:12:43;;;;;;;13.70;8.57;;;;;;;;;;5056498;28;20021;-77
2023/06/19 00:15:09;;;;;;;9.85;8.75;;;;;;;;;;5068127;28;20043;-77
2023/06/19 00:17:39;;;;;;;10.32;9.02;;;;;;;;;;5052216;28;20025;-75
2023/06/19 00:20:05;;;;;;;9.75;8.48;;;;;;;;;;5065026;28;20024;-76
2023/06/19 00:22:32;;;;;;;11.63;9.50;;;;;;;;;;5037662;28;20032;-76
2023/06/19 00:24:58;;;;;;;10.15;8.93;;;;;;;;;;5039292;28;20024;-76
2023/06/19 00:27:24;;;;;;;9.77;8.77;;;;;;;;;;5064766;28;20028;-76
2023/06/19 00:29:51;;;;;;;10.23;9.10;;;;;;;;;;5062811;28;20116;-76
2023/06/19 00:32:17;;;;;;;10.68;9.25;;;;;;;;;;5058326;28;20028;-77
2023/06/19 00:34:43;;;;;;;10.82;9.55;;;;;;;;;;5068999;28;20020;-76
2023/06/19 00:37:13;;;;;;;11.00;9.63;;;;;;;;;;5056910;28;20048;-77
2023/06/19 00:39:39;;;;;;;10.43;8.85;;;;;;;;;;5062969;28;20450;-76
2023/06/19 00:42:05;;;;;;;9.73;8.73;;;;;;;;;;5064750;28;20029;-76
2023/06/19 00:44:31;;;;;;;11.43;8.80;;;;;;;;;;5037533;28;20048;-76
2023/06/19 00:46:58;;;;;;;8.68;7.88;;;;;;;;;;5069560;28;20041;-76
2023/06/19 00:49:25;;;;;;;9.80;8.45;;;;;;;;;;5043758;28;20070;-77
2023/06/19 00:51:52;;;;;;;9.68;8.65;;;;;;;;;;5064051;28;20029;-76
2023/06/19 00:54:18;;;;;;;9.63;8.63;;;;;;;;;;5074597;28;20027;-77
2023/06/19 00:56:45;;;;;;;9.88;8.88;;;;;;;;;;5061371;28;20017;-77
2023/06/19 00:59:17;;;;;;;9.88;8.05;;;;;;;;;;5068413;28;20032;-76
2023/06/19 01:01:43;;;;;;;10.20;8.43;;;;;;;;;;5063458;28;20390;-77
2023/06/19 01:04:09;;;;;;;11.23;8.60;;;;;;;;;;5067715;28;20052;-76
2023/06/19 01:06:44;;;;;;;12.75;9.68;;;;;;;;;;5068518;28;20032;-76
2023/06/19 01:09:12;;;;;;;10.13;9.07;;;;;;;;;;5057011;28;20024;-76
2023/06/19 01:11:41;;;;;;;10.48;9.38;;;;;;;;;;5062681;28;20104;-76
2023/06/19 01:14:10;;;;;;;10.48;8.93;;;;;;;;;;5065806;28;20107;-76
2023/06/19 01:16:36;;;;;;;11.95;9.23;;;;;;;;;;5056970;28;20025;-76
2023/06/19 01:19:03;;;;;;;10.68;9.57;;;;;;;;;;5062936;28;20016;-77
2023/06/19 01:21:29;;;;;;;10.18;8.68;;;;;;;;;;5071521;28;20095;-77
2023/06/19 01:23:55;;;;;;;10.85;9.15;;;;;;;;;;5050841;28;20039;-76
2023/06/19 01:26:27;;;;;;;9.48;8.20;;;;;;;;;;5059758;28;20568;-77
2023/06/19 01:28:57;;;;;;;10.82;9.05;;;;;;;;;;5069589;28;20045;-76
2023/06/19 01:31:26;;;;;;;10.68;8.15;;;;;;;;;;5041517;28;20025;-77
2023/06/19 01:33:53;;;;;;;11.30;8.93;;;;;;;;;;5061524;28;20017;-76
2023/06/19 01:36:19;;;;;;;10.45;9.35;;;;;;;;;;5067245;28;20028;-77
2023/06/19 01:38:46;;;;;;;13.35;9.18;;;;;;;;;;5055659;28;20087;-77
2023/06/19 01:41:12;;;;;;;10.23;9.20;;;;;;;;;;5069117;28;20023;-76
2023/06/19 01:43:38;;;;;;;10.35;9.20;;;;;;;;;;5065921;28;20071;-76
2023/06/19 01:46:05;;;;;;;12.70;9.55;;;;;;;;;;5063877;28;20036;-76
2023/06/19 01:48:31;;;;;;;9.90;8.90;;;;;;;;;;5073144;28;20032;-76
2023/06/19 01:50:57;;;;;;;10.50;9.35;;;;;;;;;;5062969;28;20020;-77
2023/06/19 01:53:23;;;;;;;11.32;9.52;;;;;;;;;;5080410;28;20046;-77
2023/06/19 01:55:49;;;;;;;12.48;9.77;;;;;;;;;;5074810;28;20024;-77
2023/06/19 01:58:15;;;;;;;11.07;9.25;;;;;;;;;;5067423;28;20032;-77
2023/06/19 02:00:41;;;;;;;13.07;9.35;;;;;;;;;;5074718;28;20025;-77
2023/06/19 02:03:07;;;;;;;12.77;9.80;;;;;;;;;;5058491;28;20028;-77
2023/06/19 02:05:34;;;;;;;13.13;9.88;;;;;;;;;;5064805;28;20032;-76
2023/06/19 02:08:00;;;;;;;11.50;9.35;;;;;;;;;;5067063;28;20475;-78
2023/06/19 02:10:26;;;;;;;12.88;9.38;;;;;;;;;;5071494;28;20074;-76
2023/06/19 02:12:52;;;;;;;12.07;9.23;;;;;;;;;;5058067;28;20025;-75
2023/06/19 02:15:18;;;;;;;11.30;10.20;;;;;;;;;;5068162;28;20074;-75
2023/06/19 02:17:44;;;;;;;13.23;10.55;;;;;;;;;;5063961;28;20451;-76
2023/06/19 02:20:11;;;;;;;12.10;9.85;;;;;;;;;;5061235;28;20032;-76
2023/06/19 02:22:40;;;;;;;14.68;8.88;;;;;;;;;;5053339;28;20071;-77
2023/06/19 02:25:06;;;;;;;11.98;9.95;;;;;;;;;;5064331;28;20020;-76
2023/06/19 02:27:32;;;;;;;13.05;9.88;;;;;;;;;;5068438;28;20021;-76
2023/06/19 02:29:59;;;;;;;11.60;10.32;;;;;;;;;;5070084;28;20029;-77
2023/06/19 02:32:25;;;;;;;11.32;9.85;;;;;;;;;;5060999;28;20032;-76
2023/06/19 02:34:51;;;;;;;11.98;10.15;;;;;;;;;;5070515;28;20052;-76
2023/06/19 02:37:17;;;;;;;14.13;10.63;;;;;;;;;;5060519;28;20021;-77
2023/06/19 02:39:43;;;;;;;12.93;10.98;;;;;;;;;;5065548;28;20032;-77
2023/06/19 02:42:09;;;;;;;12.57;10.45;;;;;;;;;;5050772;28;20032;-77
2023/06/19 02:44:35;;;;;;;11.80;10.60;;;;;;;;;;5058888;28;20025;-77
2023/06/19 02:47:01;;;;;;;17.75;10.90;;;;;;;;;;5052793;28;20013;-76
2023/06/19 02:49:27;;;;;;;11.93;10.25;;;;;;;;;;5061159;28;20551;-76
2023/06/19 02:51:53;;;;;;;11.77;10.50;;;;;;;;;;5062135;28;20059;-76
2023/06/19 02:54:19;;;;;;;13.07;10.75;;;;;;;;;;5068252;28;20490;-77
2023/06/19 02:56:45;;;;;;;13.25;11.18;;;;;;;;;;5057258;28;20027;-77
2023/06/19 02:59:11;;;;;;;11.80;10.27;;;;;;;;;;5068395;28;20017;-76
2023/06/19 03:01:37;;;;;;;11.93;10.73;;;;;;;;;;5063460;28;20046;-76
2023/06/19 03:04:03;;;;;;;13.07;10.88;;;;;;;;;;5060885;28;20590;-76
2023/06/19 03:06:30;;;;;;;13.68;10.68;;;;;;;;;;5070001;28;20506;-76
2023/06/19 03:08:56;;;;;;;12.45;10.18;;;;;;;;;;5056742;28;20551;-77
2023/06/19 03:11:22;;;;;;;20.63;17.42;;;;;;;;;;5048653;28;20495;-76
2023/06/19 03:13:50;;;;;;;13.10;10.57;;;;;;;;;;5045989;28;20048;-77
2023/06/19 03:16:16;;;;;;;13.55;10.40;;;;;;;;;;5060059;28;20067;-77
2023/06/19 03:18:44;;;;;;;43.00;29.85;;;;;;;;;;5070000;28;20024;-76
2023/06/19 03:21:10;;;;;;;12.60;9.52;;;;;;;;;;5058928;28;20017;-76
2023/06/19 03:23:37;;;;;;;12.20;10.35;;;;;;;;;;5064406;28;20398;-76
2023/06/19 03:26:03;;;;;;;10.45;9.20;;;;;;;;;;5065612;28;20097;-76
2023/06/19 03:28:29;;;;;;;11.88;9.30;;;;;;;;;;5056815;28;20021;-76
2023/06/19 03:30:55;;;;;;;11.63;9.07;;;;;;;;;;5051456;28;20108;-77
2023/06/19 03:33:21;;;;;;;11.65;8.50;;;;;;;;;;5059953;28;20059;-76
2023/06/19 03:35:47;;;;;;;10.13;8.80;;;;;;;;;;5062730;28;20022;-76
2023/06/19 03:38:13;;;;;;;9.25;8.35;;;;;;;;;;5048483;28;20023;-76
2023/06/19 03:40:39;;;;;;;9.65;8.45;;;;;;;;;;5056328;28;20025;-77
2023/06/19 03:43:05;;;;;;;11.73;8.15;;;;;;;;;;5068255;28;20032;-77
2023/06/19 03:45:31;;;;;;;9.95;8.00;;;;;;;;;;5060587;28;20024;-77
2023/06/19 03:47:57;;;;;;;11.02;8.80;;;;;;;;;;5060863;28;20029;-77
2023/06/19 03:50:23;;;;;;;9.95;8.95;;;;;;;;;;5050049;28;20032;-77
2023/06/19 03:52:49;;;;;;;9.82;8.77;;;;;;;;;;5060635;28;20021;-76
2023/06/19 03:55:15;;;;;;;13.50;9.38;;;;;;;;;;5073389;28;20051;-77
2023/06/19 03:57:41;;;;;;;10.23;9.20;;;;;;;;;;5068390;28;20028;-75
2023/06/19 04:00:10;;;;;;;11.75;8.68;;;;;;;;;;5062941;28;20037;-77
2023/06/19 04:02:37;;;;;;;12.48;9.07;;;;;;;;;;5069559;28;20429;-76
2023/06/19 04:05:04;;;;;;;9.43;8.52;;;;;;;;;;5056596;28;20021;-76
2023/06/19 04:07:31;;;;;;;9.68;8.68;;;;;;;;;;5064233;28;20074;-77
2023/06/19 04:09:57;;;;;;;11.00;9.02;;;;;;;;;;5063911;28;20100;-76
2023/06/19 04:12:23;;;;;;;10.18;8.85;;;;;;;;;;5057075;28;20049;-76
2023/06/19 04:14:49;;;;;;;10.73;9.60;;;;;;;;;;5068841;28;20028;-75
2023/06/19 04:17:15;;;;;;;13.50;9.10;;;;;;;;;;5039863;28;20119;-75
2023/06/19 04:19:42;;;;;;;11.20;8.85;;;;;;;;;;5062583;28;20518;-76
2023/06/19 04:22:08;;;;;;;9.82;8.82;;;;;;;;;;5065528;28;20024;-77
2023/06/19 04:24:34;;;;;;;11.80;8.18;;;;;;;;;;5055329;28;20032;-76
2023/06/19 04:27:00;;;;;;;10.25;8.20;;;;;;;;;;5068306;28;20013;-77
2023/06/19 04:29:26;;;;;;;10.77;8.02;;;;;;;;;;5059340;28;20024;-76
2023/06/19 04:31:52;;;;;;;7.80;7.07;;;;;;;;;;5062432;28;20064;-76
2023/06/19 04:34:20;;;;;;;12.55;7.25;;;;;;;;;;5069111;28;20394;-77
2023/06/19 04:36:47;;;;;;;8.15;7.22;;;;;;;;;;5056009;28;20024;-76
2023/06/19 04:39:13;;;;;;;11.93;7.25;;;;;;;;;;5065344;28;20013;-76
2023/06/19 04:41:41;;;;;;;9.35;7.53;;;;;;;;;;5061203;28;20028;-77
2023/06/19 04:44:08;;;;;;;8.98;8.05;;;;;;;;;;5059917;28;20033;-76
2023/06/19 04:46:34;;;;;;;9.18;8.13;;;;;;;;;;5050925;28;20051;-77
2023/06/19 04:49:00;;;;;;;11.55;8.43;;;;;;;;;;5056576;28;20389;-76
2023/06/19 04:51:26;;;;;;;14.80;9.30;;;;;;;;;;5065077;28;20028;-76
2023/06/19 04:53:52;;;;;;;10.13;9.00;;;;;;;;;;5066788;28;20047;-77
2023/06/19 04:56:18;;;;;;;10.13;8.35;;;;;;;;;;5068495;28;20017;-77
2023/06/19 04:58:48;;;;;;;10.63;8.50;;;;;;;;;;5078677;28;20034;-77
2023/06/19 05:01:15;;;;;;;12.25;8.45;;;;;;;;;;5061977;28;20024;-77
2023/06/19 05:03:41;;;;;;;10.55;8.55;;;;;;;;;;5066243;28;20073;-76
2023/06/19 05:06:08;;;;;;;11.27;8.38;;;;;;;;;;5044973;28;20032;-76
2023/06/19 05:08:34;;;;;;;10.52;8.10;;;;;;;;;;5053891;28;20397;-77
2023/06/19 05:11:00;;;;;;;10.30;9.20;;;;;;;;;;5063812;28;20153;-78
2023/06/19 05:13:26;;;;;;;11.10;8.85;;;;;;;;;;5067145;28;20071;-77
2023/06/19 05:15:52;;;;;;;10.43;8.52;;;;;;;;;;5066303;28;20047;-77
2023/06/19 05:18:18;;;;;;;9.95;8.63;;;;;;;;;;5061136;28;20565;-78
2023/06/19 05:20:45;;;;;;;11.80;8.27;;;;;;;;;;5071937;28;20302;-77
2023/06/19 05:23:11;;;;;;;12.63;8.95;;;;;;;;;;5066895;28;20545;-76
2023/06/19 05:25:38;;;;;;;18.48;9.23;;;;;;;;;;5051185;28;20101;-77
2023/06/19 05:28:04;;;;;;;12.02;8.80;;;;;;;;;;5050467;28;20040;-78
2023/06/19 05:30:30;;;;;;;11.70;8.88;;;;;;;;;;5040101;28;20506;-77
2023/06/19 05:32:56;;;;;;;13.57;8.93;;;;;;;;;;5051426;28;20021;-77
2023/06/19 05:35:22;;;;;;;11.27;8.27;;;;;;;;;;5063070;28;20482;-77
2023/06/19 05:37:48;;;;;;;14.68;8.85;;;;;;;;;;5065419;28;20028;-79
2023/06/19 05:40:14;;;;;;;12.63;9.25;;;;;;;;;;5070644;28;20037;-77
2023/06/19 05:42:41;;;;;;;12.07;9.10;;;;;;;;;;5058415;28;20025;-78
2023/06/19 05:45:07;;;;;;;10.88;8.93;;;;;;;;;;5070245;28;20028;-76
2023/06/19 05:47:33;;;;;;;12.73;8.30;;;;;;;;;;5064217;28;20029;-78
2023/06/19 05:50:00;;;;;;;10.15;8.13;;;;;;;;;;5064306;28;20511;-77
2023/06/19 05:52:26;;;;;;;9.40;8.40;;;;;;;;;;5054908;28;20021;-77
2023/06/19 05:54:53;;;;;;;8.93;8.02;;;;;;;;;;5063894;28;20040;-77
2023/06/19 05:57:22;;;;;;;10.93;8.77;;;;;;;;;;5065039;28;20028;-77
2023/06/19 05:59:49;;;;;;;12.00;8.80;;;;;;;;;;5075108;28;20017;-78
2023/06/19 06:02:15;;;;;;;9.60;8.38;;;;;;;;;;5060352;28;20029;-78
2023/06/19 06:04:42;;;;;;;14.40;8.82;;;;;;;;;;5049273;28;20035;-77
2023/06/19 06:07:08;;;;;;;8.98;8.02;;;;;;;;;;5081199;28;20017;-78
2023/06/19 06:09:34;;;;;;;10.70;9.07;;;;;;;;;;5061013;28;20029;-78
2023/06/19 06:12:00;;;;;;;13.85;9.15;;;;;;;;;;5079541;28;20025;-79
2023/06/19 06:14:26;;;;;;;10.73;8.38;;;;;;;;;;5087511;28;20088;-80
2023/06/19 06:16:53;;;;;;;10.70;8.73;;;;;;;;;;5073576;28;20108;-78
2023/06/19 06:19:23;;;;;;;14.65;9.02;;;;;;;;;;5077524;28;20021;-76
2023/06/19 06:21:49;;;;;;;13.83;8.47;;;;;;;;;;5056366;28;20021;-78
2023/06/19 06:24:16;;;;;;;13.85;8.23;;;;;;;;;;5071436;28;20033;-79
2023/06/19 06:26:42;;;;;;;9.65;8.35;;;;;;;;;;5062715;28;20032;-79
2023/06/19 06:29:08;;;;;;;14.98;11.48;;;;;;;;;;5076773;28;20035;-79
2023/06/19 06:31:34;;;;;;;16.05;9.07;;;;;;;;;;5069576;28;20043;-79
2023/06/19 06:34:00;;;;;;;14.52;8.88;;;;;;;;;;5070552;28;20017;-78
2023/06/19 06:36:26;;;;;;;12.90;8.52;;;;;;;;;;5077644;28;20433;-79
2023/06/19 06:38:52;;;;;;;14.38;8.82;;;;;;;;;;5065508;28;20020;-79
2023/06/19 06:41:18;;;;;;;9.88;8.48;;;;;;;;;;5076210;28;20024;-79
2023/06/19 06:43:44;;;;;;;10.85;8.18;;;;;;;;;;5071331;28;20501;-79
2023/06/19 06:46:11;;;;;;;12.25;9.40;;;;;;;;;;5068477;28;20084;-79
2023/06/19 06:48:37;;;;;;;8.20;7.32;;;;;;;;;;5059110;28;20028;-79
2023/06/19 06:51:03;;;;;;;10.48;7.55;;;;;;;;;;5064542;28;20367;-78
2023/06/19 06:53:31;;;;;;;11.85;8.05;;;;;;;;;;5073882;28;20042;-79
2023/06/19 06:55:57;;;;;;;8.50;7.60;;;;;;;;;;5074027;28;20029;-78
2023/06/19 06:58:24;;;;;;;10.75;8.93;;;;;;;;;;5069280;28;20052;-77
2023/06/19 07:00:50;;;;;;;12.35;8.68;;;;;;;;;;5087376;28;20024;-78
2023/06/19 07:03:17;;;;;;;11.07;8.57;;;;;;;;;;5072017;28;20371;-78
2023/06/19 07:05:44;;;;;;;12.00;8.73;;;;;;;;;;5073410;28;20116;-79
2023/06/19 07:08:10;;;;;;;10.95;8.00;;;;;;;;;;5066139;28;20502;-77
2023/06/19 07:10:36;;;;;;;11.35;8.65;;;;;;;;;;5074513;28;20029;-78
2023/06/19 07:13:02;;;;;;;8.68;7.78;;;;;;;;;;5062243;28;20044;-77
2023/06/19 07:15:28;;;;;;;10.82;7.82;;;;;;;;;;5070660;28;20020;-79
2023/06/19 07:17:54;;;;;;;10.10;8.90;;;;;;;;;;5059647;28;20032;-79
2023/06/19 07:20:20;;;;;;;8.35;7.55;;;;;;;;;;5042514;28;20025;-79
2023/06/19 07:22:46;;;;;;;10.25;8.35;;;;;;;;;;5060920;28;20082;-79
2023/06/19 07:25:13;;;;;;;13.52;8.25;;;;;;;;;;5061335;28;20439;-79
2023/06/19 07:27:40;;;;;;;10.75;7.95;;;;;;;;;;5042813;28;20447;-79
2023/06/19 07:30:07;;;;;;;12.00;7.82;;;;;;;;;;5063346;28;20032;-79
2023/06/19 07:32:33;;;;;;;9.57;8.00;;;;;;;;;;5062527;28;20025;-78
2023/06/19 07:34:59;;;;;;;9.13;7.93;;;;;;;;;;5064764;28;20511;-79
2023/06/19 07:37:45;;;;;;;9.20;7.60;;;;;;;;;;5098855;22;20099;-80
2023/06/19 07:52:16;;;;;;;8.38;7.57;;;;;;;;;;4934363;29;20055;-78
2023/06/19 07:54:53;;;;;;;13.98;7.88;;;;;;;;;;4936757;29;20044;-79
2023/06/19 07:57:19;;;;;;;8.60;7.50;;;;;;;;;;5016650;22;20189;-70
2023/06/19 07:59:46;;;;;;;8.88;7.38;;;;;;;;;;5052339;28;20466;-71
2023/06/19 08:02:12;;;;;;;11.98;8.35;;;;;;;;;;5050632;28;20033;-70
2023/06/19 08:04:38;;;;;;;11.57;7.25;;;;;;;;;;5052261;28;20020;-71
2023/06/19 08:07:04;;;;;;;8.93;7.70;;;;;;;;;;5052517;28;20025;-71
2023/06/19 08:09:30;;;;;;;7.65;6.80;;;;;;;;;;5052572;28;20028;-71
2023/06/19 08:11:56;;;;;;;9.70;7.68;;;;;;;;;;5052532;28;20041;-71
2023/06/19 08:14:22;;;;;;;10.77;7.40;;;;;;;;;;5052395;28;20072;-71
2023/06/19 08:16:48;;;;;;;10.45;6.95;;;;;;;;;;5034135;28;20119;-71
2023/06/19 08:19:14;;;;;;;9.00;6.95;;;;;;;;;;5052179;28;20032;-72
2023/06/19 08:21:40;;;;;;;10.07;6.80;;;;;;;;;;5034541;28;20032;-72
2023/06/19 08:24:06;;;;;;;9.50;7.32;;;;;;;;;;5052394;28;20028;-72
2023/06/19 08:26:32;;;;;;;8.95;7.43;;;;;;;;;;5051907;28;20040;-70
2023/06/19 08:28:58;;;;;;;11.57;7.50;;;;;;;;;;5051563;28;20573;-71
2023/06/19 08:31:28;;;;;;;8.07;7.25;;;;;;;;;;5051920;28;20048;-70
2023/06/19 08:33:55;;;;;;;10.27;7.78;;;;;;;;;;5052081;28;20028;-71
2023/06/19 08:36:21;;;;;;;7.95;7.05;;;;;;;;;;5033854;28;20055;-71
2023/06/19 08:38:49;;;;;;;8.18;6.72;;;;;;;;;;5051480;28;20032;-71
2023/06/19 08:41:15;;;;;;;8.38;7.25;;;;;;;;;;5033796;28;20095;-71
2023/06/19 08:43:42;;;;;;;9.80;6.72;;;;;;;;;;5051343;28;20158;-71
2023/06/19 08:46:12;;;;;;;10.38;7.47;;;;;;;;;;5052251;28;20040;-71
2023/06/19 08:48:39;;;;;;;8.80;6.90;;;;;;;;;;5051841;28;20390;-71
2023/06/19 08:51:05;;;;;;;11.13;7.93;;;;;;;;;;5051112;28;20588;-71
2023/06/19 08:53:35;;;;;;;9.70;8.50;;;;;;;;;;5034184;28;20029;-71
2023/06/19 08:56:03;;;;;;;7.57;6.72;;;;;;;;;;5051491;28;20033;-71
2023/06/19 08:58:29;;;;;;;8.88;7.97;;;;;;;;;;5051361;28;20035;-71
2023/06/19 09:00:55;;;;;;;11.18;8.00;;;;;;;;;;5051729;28;20106;-71
2023/06/19 09:03:21;;;;;;;12.65;7.90;;;;;;;;;;5051628;28;20025;-70
2023/06/19 09:05:51;;;;;;;9.52;7.95;;;;;;;;;;5051701;28;20017;-71
2023/06/19 09:08:17;;;;;;;10.93;7.30;;;;;;;;;;5051613;28;20032;-71
2023/06/19 09:10:44;;;;;;;7.78;6.70;;;;;;;;;;5055509;28;20033;-70
2023/06/19 09:13:10;;;;;;;8.63;7.43;;;;;;;;;;5051705;28;20043;-72
2023/06/19 09:15:36;;;;;;;7.18;6.47;;;;;;;;;;5051507;28;20633;-71
2023/06/19 09:18:11;;;;;;;9.15;7.32;;;;;;;;;;5050985;28;20079;-71
2023/06/19 09:20:44;;;;;;;10.80;7.47;;;;;;;;;;5051487;28;20483;-71
2023/06/19 09:23:13;;;;;;;12.50;7.70;;;;;;;;;;5051321;28;20079;-71
2023/06/19 09:25:52;;;;;;;10.55;7.82;;;;;;;;;;5051359;28;20029;-71
2023/06/19 09:28:19;;;;;;;9.23;8.32;;;;;;;;;;5050843;28;20025;-71
2023/06/19 09:30:59;;;;;;;9.18;7.75;;;;;;;;;;5051152;28;20525;-71
2023/06/19 09:33:29;;;;;;;8.93;7.47;;;;;;;;;;5051095;28;20021;-71
2023/06/19 09:35:55;;;;;;;11.23;8.05;;;;;;;;;;5051071;28;20025;-71
2023/06/19 09:38:24;;;;;;;11.35;7.68;;;;;;;;;;5050622;28;20092;-70
2023/06/19 09:40:51;;;;;;;11.40;8.02;;;;;;;;;;5051046;28;20025;-72
2023/06/19 09:43:21;;;;;;;9.38;7.68;;;;;;;;;;5051211;28;20055;-71
2023/06/19 09:45:50;;;;;;;14.07;9.23;;;;;;;;;;5051096;28;20056;-70
2023/06/19 09:48:19;;;;;;;11.25;8.68;;;;;;;;;;5050787;28;20104;-71
2023/06/19 09:50:46;;;;;;;10.80;8.45;;;;;;;;;;5051052;28;20029;-71
2023/06/19 09:53:12;;;;;;;10.35;8.27;;;;;;;;;;5050630;28;20406;-72
2023/06/19 09:55:40;;;;;;;12.30;8.48;;;;;;;;;;5051123;28;20025;-71
2023/06/19 09:58:07;;;;;;;13.65;8.88;;;;;;;;;;5050593;28;20407;-71
2023/06/19 10:00:34;;;;;;;9.50;8.30;;;;;;;;;;5050957;28;20032;-71
2023/06/19 10:03:02;;;;;;;15.18;8.85;;;;;;;;;;5035815;28;20052;-71
2023/06/19 10:05:36;;;;;;;13.10;8.50;;;;;;;;;;5054519;28;20025;-71
2023/06/19 10:08:04;;;;;;;9.55;8.43;;;;;;;;;;5053985;28;20372;-72
2023/06/19 10:10:31;;;;;;;9.45;8.30;;;;;;;;;;5053173;28;20021;-70
2023/06/19 10:13:00;;;;;;;10.90;8.30;;;;;;;;;;5054331;28;20092;-71
2023/06/19 10:15:27;;;;;;;12.52;9.25;;;;;;;;;;5054285;28;20029;-72
2023/06/19 10:18:01;;;;;;;9.07;7.55;;;;;;;;;;5053937;28;20399;-71
2023/06/19 10:20:32;;;;;;;9.70;7.30;;;;;;;;;;5052602;28;20021;-70
2023/06/19 10:23:10;;;;;;;10.98;7.65;;;;;;;;;;5052810;28;20109;-72
2023/06/19 10:25:43;;;;;;;9.10;8.13;;;;;;;;;;5053543;28;20108;-72
2023/06/19 10:28:21;;;;;;;9.20;7.70;;;;;;;;;;5053031;28;20045;-71
2023/06/19 10:31:01;;;;;;;8.98;7.70;;;;;;;;;;5052692;28;20025;-72
2023/06/19 10:33:29;;;;;;;14.53;8.13;;;;;;;;;;5053692;28;20036;-72
2023/06/19 10:35:55;;;;;;;9.73;8.05;;;;;;;;;;5054076;28;20082;-71
2023/06/19 10:38:21;;;;;;;8.50;7.60;;;;;;;;;;5036128;28;20166;-72
2023/06/19 10:40:47;;;;;;;10.40;7.03;;;;;;;;;;5054204;28;20437;-71
2023/06/19 10:43:20;;;;;;;16.13;7.65;;;;;;;;;;5054157;28;20427;-71
2023/06/19 10:45:46;;;;;;;8.27;7.47;;;;;;;;;;5052866;28;20496;-72
2023/06/19 10:48:12;;;;;;;9.63;7.70;;;;;;;;;;5052036;28;20029;-72
2023/06/19 10:50:38;;;;;;;10.30;7.85;;;;;;;;;;5052927;28;20029;-72
2023/06/19 10:53:04;;;;;;;9.90;6.88;;;;;;;;;;5052752;28;20060;-72
2023/06/19 10:55:30;;;;;;;8.48;7.18;;;;;;;;;;5054087;28;20394;-73
2023/06/19 10:57:56;;;;;;;11.70;8.32;;;;;;;;;;5070319;28;20090;-73
2023/06/19 11:00:23;;;;;;;10.48;7.22;;;;;;;;;;5063593;28;20021;-72
2023/06/19 11:02:49;;;;;;;11.82;7.70;;;;;;;;;;5061302;28;20104;-71
2023/06/19 11:05:15;;;;;;;14.18;8.07;;;;;;;;;;5064005;28;20044;-71
2023/06/19 11:07:42;;;;;;;11.10;7.72;;;;;;;;;;5071392;28;20557;-71
2023/06/19 11:10:08;;;;;;;12.00;7.40;;;;;;;;;;5071815;28;20029;-72
2023/06/19 11:12:34;;;;;;;11.73;8.05;;;;;;;;;;5066407;28;20028;-72
2023/06/19 11:15:03;;;;;;;9.20;7.47;;;;;;;;;;5051115;28;20479;-72
2023/06/19 11:17:29;;;;;;;11.20;7.78;;;;;;;;;;5051936;28;20017;-71
2023/06/19 11:19:58;;;;;;;14.77;7.57;;;;;;;;;;5052920;28;20021;-71
2023/06/19 11:22:36;;;;;;;14.75;8.57;;;;;;;;;;5052951;28;20028;-71
2023/06/19 11:25:03;;;;;;;9.32;7.30;;;;;;;;;;5053219;28;20043;-71
2023/06/19 11:27:30;;;;;;;11.45;7.72;;;;;;;;;;5053022;28;20032;-71
2023/06/19 11:29:58;;;;;;;7.82;7.03;;;;;;;;;;5053026;28;20033;-71
2023/06/19 11:32:24;;;;;;;8.02;7.03;;;;;;;;;;5053086;28;20589;-72
2023/06/19 11:34:51;;;;;;;13.68;7.88;;;;;;;;;;5053038;28;20021;-72
2023/06/19 11:37:17;;;;;;;8.95;8.02;;;;;;;;;;5052482;28;20021;-71
2023/06/19 11:39:47;;;;;;;8.38;7.55;;;;;;;;;;5053004;28;20028;-72
2023/06/19 11:42:14;;;;;;;8.50;6.97;;;;;;;;;;5053357;28;20232;-72
2023/06/19 11:44:56;;;;;;;9.00;7.25;;;;;;;;;;5051645;28;20075;-72
2023/06/19 11:47:23;;;;;;;10.18;7.65;;;;;;;;;;5051499;28;20028;-72
2023/06/19 11:49:49;;;;;;;9.93;7.15;;;;;;;;;;5052914;28;20057;-73
2023/06/19 11:52:15;;;;;;;13.77;6.93;;;;;;;;;;5051444;28;20035;-72
2023/06/19 11:54:41;;;;;;;9.70;7.28;;;;;;;;;;5051918;28;20383;-71
2023/06/19 11:57:08;;;;;;;8.68;7.20;;;;;;;;;;5051945;28;20471;-71
2023/06/19 11:59:34;;;;;;;8.85;7.15;;;;;;;;;;5052279;28;20048;-73
2023/06/19 12:02:00;;;;;;;9.32;6.50;;;;;;;;;;5052783;28;20389;-72
2023/06/19 12:04:26;;;;;;;8.27;7.30;;;;;;;;;;5051759;28;20031;-71
2023/06/19 12:06:53;;;;;;;7.63;6.93;;;;;;;;;;5050538;28;20028;-72
2023/06/19 12:09:19;;;;;;;8.35;6.72;;;;;;;;;;5052166;28;20029;-73
2023/06/19 12:11:45;;;;;;;9.07;6.30;;;;;;;;;;5052125;28;20036;-72
2023/06/19 12:14:11;;;;;;;6.88;6.18;;;;;;;;;;5052265;28;20017;-72
2023/06/19 12:16:37;;;;;;;9.38;6.38;;;;;;;;;;5052112;28;20021;-72
2023/06/19 12:19:03;;;;;;;7.78;6.13;;;;;;;;;;5051713;28;20017;-72
2023/06/19 12:21:29;;;;;;;7.53;6.00;;;;;;;;;;5052100;28;20096;-73
2023/06/19 12:23:55;;;;;;;6.40;5.90;;;;;;;;;;5052039;28;20021;-72
2023/06/19 12:26:21;;;;;;;8.48;5.68;;;;;;;;;;5051815;28;20036;-73
2023/06/19 12:28:47;;;;;;;7.72;6.10;;;;;;;;;;5051831;28;20053;-72
2023/06/19 12:31:13;;;;;;;7.95;6.75;;;;;;;;;;5050549;28;20040;-72
2023/06/19 12:33:43;;;;;;;8.63;6.30;;;;;;;;;;5051661;28;20025;-72
2023/06/19 12:36:12;;;;;;;9.82;6.43;;;;;;;;;;5051597;28;20056;-73
2023/06/19 12:38:38;;;;;;;11.95;6.53;;;;;;;;;;5051714;28;20021;-71
2023/06/19 12:41:04;;;;;;;8.05;6.30;;;;;;;;;;5050692;28;20410;-72
2023/06/19 12:43:33;;;;;;;6.47;5.80;;;;;;;;;;5051689;28;20025;-72
2023/06/19 12:45:59;;;;;;;11.32;6.40;;;;;;;;;;5051586;28;20378;-72
2023/06/19 12:48:26;;;;;;;7.22;6.20;;;;;;;;;;5051858;28;20032;-73
2023/06/19 12:50:52;;;;;;;8.10;5.88;;;;;;;;;;5052127;28;20390;-73
2023/06/19 12:53:18;;;;;;;7.20;5.78;;;;;;;;;;5051824;28;20434;-73
2023/06/19 12:55:44;;;;;;;6.22;5.63;;;;;;;;;;5050219;28;20043;-72
2023/06/19 12:58:11;;;;;;;6.80;5.55;;;;;;;;;;5050132;28;20071;-72
2023/06/19 13:00:41;;;;;;;6.32;5.75;;;;;;;;;;5051525;28;20059;-73
2023/06/19 13:03:06;;;;;;;7.25;5.75;;;;;;;;;;5051269;28;20106;-73
2023/06/19 13:05:32;;;;;;;6.72;6.03;;;;;;;;;;5051826;28;20615;-73
2023/06/19 13:07:58;;;;;;;8.32;6.15;;;;;;;;;;5051644;28;20108;-74
2023/06/19 13:10:24;;;;;;;6.93;6.22;;;;;;;;;;5051549;28;20403;-72
2023/06/19 13:12:51;;;;;;;13.10;6.38;;;;;;;;;;5051624;28;20017;-73
2023/06/19 13:15:17;;;;;;;9.88;6.32;;;;;;;;;;5033723;28;20036;-73
2023/06/19 13:17:43;;;;;;;6.45;5.55;;;;;;;;;;5051092;28;20036;-72
2023/06/19 13:20:09;;;;;;;7.93;6.07;;;;;;;;;;5051397;28;20021;-72
2023/06/19 13:22:35;;;;;;;9.90;6.15;;;;;;;;;;5051523;28;20017;-72
2023/06/19 13:25:04;;;;;;;10.35;6.40;;;;;;;;;;5051386;28;20096;-73
2023/06/19 13:27:30;;;;;;;8.93;7.03;;;;;;;;;;5051046;28;20225;-72
2023/06/19 13:29:56;;;;;;;7.55;6.78;;;;;;;;;;5051137;28;20057;-73
2023/06/19 13:32:22;;;;;;;7.93;7.13;;;;;;;;;;5051087;28;20096;-73
2023/06/19 13:34:49;;;;;;;10.90;7.20;;;;;;;;;;5051376;28;20511;-72
2023/06/19 13:37:15;;;;;;;8.20;6.53;;;;;;;;;;5052918;28;20032;-72
2023/06/19 13:39:41;;;;;;;8.73;7.28;;;;;;;;;;5054451;28;20478;-71
2023/06/19 13:42:11;;;;;;;8.95;6.30;;;;;;;;;;5054026;28;20104;-73
2023/06/19 13:44:37;;;;;;;13.23;7.38;;;;;;;;;;5055111;28;20513;-73
2023/06/19 13:47:03;;;;;;;15.80;7.57;;;;;;;;;;5055061;28;20036;-72
2023/06/19 13:49:30;;;;;;;13.82;7.97;;;;;;;;;;5055042;28;20100;-73
2023/06/19 13:51:56;;;;;;;14.07;7.40;;;;;;;;;;5035043;28;20032;-73
2023/06/19 13:54:22;;;;;;;18.30;8.15;;;;;;;;;;5035084;28;20024;-72
2023/06/19 13:56:51;;;;;;;11.35;7.32;;;;;;;;;;5017106;28;20025;-73
2023/06/19 14:22:05;;;;;;;;;;;;;;;;;;;;;
2023/06/19 14:28:21;;;;;;;;;;;;;;;;;;;;;
2023/06/19 14:31:17;;;;;;;9.63;7.55;;;;;;;;;;4907808;29;20761;-80
2023/06/19 14:34:15;;;;;;;10.38;7.32;;;;;;;;;;4889228;29;20057;-79
2023/06/19 14:37:00;;;;;;;8.13;7.43;;;;;;;;;;4883561;29;20076;-81
2023/06/19 14:39:57;;;;;;;8.27;7.22;;;;;;;;;;5005468;28;20033;-81
2023/06/19 14:42:24;;;;;;;9.02;7.88;;;;;;;;;;5040043;28;20369;-81
2023/06/19 14:45:05;;;;;;;11.15;8.23;;;;;;;;;;5019747;28;20032;-80
2023/06/19 14:57:35;;;;;;;9.73;8.73;;;;;;;;;;4960625;28;20050;-79
2023/06/19 15:00:32;;;;;;;11.07;8.77;;;;;;;;;;5173178;23;20133;-80
2023/06/19 15:03:11;;;;;;;12.50;8.57;;;;;;;;;;5041158;28;20373;-79
2023/06/19 15:06:55;;;;;;;12.93;9.25;;;;;;;;;;5039798;28;20507;-80
2023/06/19 15:15:53;;;;;;;13.35;8.88;;;;;;;;;;4980439;28;20073;-80
2023/06/19 15:18:24;;;;;;;11.23;8.82;;;;;;;;;;5020385;28;20037;-80
2023/06/19 15:20:53;;;;;;;12.85;8.27;;;;;;;;;;5024064;28;20029;-79
2023/06/19 15:23:28;;;;;;;8.70;7.90;;;;;;;;;;5025957;28;20021;-79
2023/06/19 15:25:56;;;;;;;9.50;8.23;;;;;;;;;;5036208;28;20059;-78
2023/06/19 15:28:28;;;;;;;12.68;7.95;;;;;;;;;;5051202;28;20026;-79
2023/06/19 15:30:54;;;;;;;10.10;7.80;;;;;;;;;;5031912;28;20017;-79
2023/06/19 15:33:28;;;;;;;10.38;8.57;;;;;;;;;;5035395;28;20022;-80